createdAt,value
2022-08-17T00:01:29.245Z,16.8
2022-08-17T00:06:29.423Z,16.6
2022-08-17T00:11:31.754Z,16.7
2022-08-17T00:16:56.133Z,16.6
2022-08-17T00:21:49.172Z,16.5
2022-08-17T00:26:43.173Z,16.6
2022-08-17T00:31:30.657Z,16.7
2022-08-17T00:36:30.970Z,16.7
2022-08-17T00:41:31.221Z,16.9
2022-08-17T00:46:31.510Z,17.0
2022-08-17T00:51:31.769Z,17.1
2022-08-17T00:56:32.019Z,17.2
2022-08-17T01:01:34.371Z,17.2
2022-08-17T01:06:32.575Z,17.2
2022-08-17T01:11:32.824Z,17.4
2022-08-17T01:16:33.078Z,17.7
2022-08-17T01:21:33.729Z,17.8
2022-08-17T01:26:35.677Z,17.9
2022-08-17T01:31:33.954Z,17.7
2022-08-17T01:36:34.295Z,17.5
2022-08-17T01:41:34.623Z,17.4
2022-08-17T01:46:34.710Z,17.4
2022-08-17T01:51:35.184Z,17.3
2022-08-17T01:56:35.292Z,17.4
2022-08-17T02:01:35.867Z,17.4
2022-08-17T02:06:45.313Z,17.3
2022-08-17T02:11:36.309Z,17.3
2022-08-17T02:16:37.943Z,17.4
2022-08-17T02:26:36.928Z,17.5
2022-08-17T02:31:37.409Z,17.6
2022-08-17T02:36:37.497Z,17.5
2022-08-17T02:41:37.995Z,17.6
2022-08-17T02:46:38.136Z,17.6
2022-08-17T02:51:38.582Z,17.6
2022-08-17T02:56:38.936Z,17.6
2022-08-17T03:01:41.223Z,17.7
2022-08-17T03:06:39.468Z,17.8
2022-08-17T03:11:39.763Z,18.0
2022-08-17T03:16:40.179Z,18.2
2022-08-17T03:21:40.401Z,18.1
2022-08-17T03:26:40.532Z,18.2
2022-08-17T03:31:40.955Z,18.3
2022-08-17T03:36:41.242Z,18.4
2022-08-17T03:41:41.574Z,18.2
2022-08-17T03:46:41.683Z,18.2
2022-08-17T03:51:42.302Z,18.4
2022-08-17T03:56:42.524Z,18.2
2022-08-17T04:01:42.950Z,18.1
2022-08-17T04:06:43.184Z,18.1
2022-08-17T04:11:45.544Z,18.2
2022-08-17T04:16:43.851Z,18.4
2022-08-17T04:21:44.103Z,18.4
2022-08-17T04:26:53.937Z,18.7
2022-08-17T04:31:44.726Z,18.6
2022-08-17T04:36:50.219Z,18.8
2022-08-17T04:41:45.240Z,18.6
2022-08-17T04:46:45.493Z,18.6
2022-08-17T04:51:56.875Z,18.6
2022-08-17T04:56:46.107Z,18.6
2022-08-17T05:01:46.390Z,18.6
2022-08-17T05:06:46.601Z,18.8
2022-08-17T05:11:46.898Z,18.7
2022-08-17T05:16:47.196Z,18.7
2022-08-17T05:21:47.575Z,18.8
2022-08-17T05:26:47.759Z,18.8
2022-08-17T05:31:48.063Z,18.9
2022-08-17T05:36:48.403Z,18.9
2022-08-17T05:41:48.832Z,19.1
2022-08-17T05:46:49.049Z,19.2
2022-08-17T05:51:49.295Z,19.4
2022-08-17T05:56:51.214Z,19.5
2022-08-17T06:01:49.918Z,19.6
2022-08-17T06:06:50.285Z,19.7
2022-08-17T06:11:53.482Z,19.7
2022-08-17T06:16:51.051Z,19.9
2022-08-17T06:21:51.467Z,19.9
2022-08-17T06:26:51.873Z,19.8
2022-08-17T06:31:54.306Z,19.8
2022-08-17T06:36:52.715Z,19.8
2022-08-17T06:41:53.089Z,20.0
2022-08-17T06:46:53.508Z,19.9
2022-08-17T06:51:53.876Z,19.9
2022-08-17T06:56:55.260Z,20.0
2022-08-17T07:01:54.732Z,20.5
2022-08-17T07:06:55.151Z,20.9
2022-08-17T07:11:55.605Z,21.1
2022-08-17T07:16:56.058Z,21.0
2022-08-17T07:21:56.517Z,20.9
2022-08-17T07:26:56.993Z,20.8
2022-08-17T07:31:57.456Z,21.1
2022-08-17T07:36:57.965Z,21.3
2022-08-17T07:41:59.037Z,21.8
2022-08-17T07:46:58.903Z,21.7
2022-08-17T07:52:00.007Z,21.8
2022-08-17T07:56:59.871Z,21.6
2022-08-17T08:02:00.488Z,21.8
2022-08-17T08:07:00.888Z,22.0
2022-08-17T08:12:01.371Z,21.9
2022-08-17T08:17:01.872Z,21.8
2022-08-17T08:22:02.342Z,21.4
2022-08-17T08:27:02.821Z,21.3
2022-08-17T08:32:03.313Z,21.1
2022-08-17T08:37:17.682Z,21.1
2022-08-17T08:42:04.299Z,21.1
2022-08-17T08:47:04.638Z,21.1
2022-08-17T08:52:05.089Z,21.2
2022-08-17T08:57:24.179Z,21.3
2022-08-17T09:02:06.020Z,21.4
2022-08-17T09:07:08.478Z,21.4
2022-08-17T09:12:06.943Z,21.6
2022-08-17T09:17:07.400Z,21.4
2022-08-17T09:22:07.861Z,21.5
2022-08-17T09:27:08.387Z,21.5
2022-08-17T09:32:08.817Z,21.6
2022-08-17T09:37:09.251Z,21.5
2022-08-17T09:42:09.767Z,21.6
2022-08-17T09:47:10.249Z,21.7
2022-08-17T09:52:11.910Z,21.8
2022-08-17T09:57:29.298Z,21.9
2022-08-17T10:02:13.597Z,22.0
2022-08-17T10:07:12.299Z,22.1
2022-08-17T10:17:13.299Z,22.4
2022-08-17T10:22:32.329Z,22.6
2022-08-17T10:27:14.361Z,22.9
2022-08-17T10:32:14.905Z,23.2
2022-08-17T10:37:15.398Z,23.2
2022-08-17T10:42:32.411Z,23.4
2022-08-17T10:47:16.517Z,23.4
2022-08-17T10:52:17.027Z,23.5
2022-08-17T10:57:17.613Z,24.0
2022-08-17T11:02:18.170Z,24.4
2022-08-17T11:07:18.790Z,24.7
2022-08-17T11:12:21.350Z,25.0
2022-08-17T11:17:19.999Z,25.0
2022-08-17T11:22:20.596Z,25.3
2022-08-17T11:27:21.219Z,25.5
2022-08-17T11:32:21.876Z,25.6
2022-08-17T11:37:22.502Z,25.5
2022-08-17T11:42:25.144Z,25.8
2022-08-17T11:47:23.877Z,25.9
2022-08-17T11:52:24.446Z,26.1
2022-08-17T11:57:27.180Z,26.0
2022-08-17T12:02:25.873Z,26.2
2022-08-17T12:07:26.577Z,26.7
2022-08-17T12:12:27.188Z,26.3
2022-08-17T12:17:41.299Z,26.4
2022-08-17T12:22:28.624Z,26.9
2022-08-17T12:27:47.618Z,26.9
2022-08-17T12:32:30.086Z,26.8
2022-08-17T12:37:30.880Z,27.2
2022-08-17T12:42:31.591Z,27.1
2022-08-17T12:47:32.413Z,26.8
2022-08-17T12:52:33.090Z,26.2
2022-08-17T12:57:33.836Z,25.1
2022-08-17T13:02:34.501Z,24.1
2022-08-17T13:07:35.221Z,23.2
2022-08-17T13:12:35.727Z,23.1
2022-08-17T13:17:36.286Z,22.6
2022-08-17T13:22:36.819Z,22.2
2022-08-17T13:27:37.305Z,21.9
2022-08-17T13:32:37.799Z,21.4
2022-08-17T13:37:38.235Z,21.3
2022-08-17T13:42:51.620Z,21.2
2022-08-17T13:47:41.130Z,21.3
2022-08-17T13:52:39.547Z,21.0
2022-08-17T13:57:41.924Z,21.1
2022-08-17T14:02:40.385Z,21.1
2022-08-17T14:07:40.855Z,21.0
2022-08-17T14:12:41.267Z,21.1
2022-08-17T14:17:41.692Z,21.5
2022-08-17T14:22:42.166Z,21.8
2022-08-17T14:27:52.389Z,21.9
2022-08-17T14:32:42.962Z,22.1
2022-08-17T14:37:43.426Z,22.3
2022-08-17T14:42:43.939Z,22.5
2022-08-17T14:47:46.511Z,22.9
2022-08-17T14:52:44.895Z,23.1
2022-08-17T14:57:45.408Z,23.2
2022-08-17T15:02:45.896Z,23.1
2022-08-17T15:07:46.277Z,23.2
2022-08-17T15:12:46.922Z,23.3
2022-08-17T15:17:47.298Z,23.1
2022-08-17T15:22:47.945Z,23.3
2022-08-17T15:27:48.285Z,23.2
2022-08-17T15:32:54.502Z,23.2
2022-08-17T15:37:49.458Z,23.4
2022-08-17T15:42:50.027Z,23.8
2022-08-17T15:47:50.540Z,23.9
2022-08-17T15:52:51.098Z,24.1
2022-08-17T15:57:51.795Z,24.2
2022-08-17T16:03:46.394Z,24.1
2022-08-17T16:07:53.229Z,24.1
2022-08-17T16:12:53.508Z,23.4
2022-08-17T16:17:54.225Z,23.2
2022-08-17T16:22:55.140Z,22.9
2022-08-17T16:27:54.843Z,22.6
2022-08-17T16:32:55.620Z,22.6
2022-08-17T16:37:55.816Z,22.6
2022-08-17T16:42:57.854Z,22.9
2022-08-17T16:47:56.816Z,23.6
2022-08-17T16:52:57.540Z,23.8
2022-08-17T17:02:58.614Z,23.2
2022-08-17T17:07:58.961Z,23.2
2022-08-17T17:13:02.187Z,23.6
2022-08-17T17:17:59.994Z,23.9
2022-08-17T17:28:01.224Z,24.1
2022-08-17T17:33:01.805Z,23.9
2022-08-17T17:38:02.404Z,24.4
2022-08-17T17:43:27.257Z,24.1
2022-08-17T17:48:03.542Z,23.7
2022-08-17T17:53:04.094Z,23.1
2022-08-17T17:58:04.671Z,22.6
2022-08-17T18:03:05.149Z,22.4
2022-08-17T18:08:10.690Z,22.1
2022-08-17T18:13:06.252Z,22.1
2022-08-17T18:18:06.597Z,22.0
2022-08-17T18:23:09.116Z,21.9
2022-08-17T18:28:07.854Z,21.8
2022-08-17T18:33:08.348Z,21.8
2022-08-17T18:43:08.971Z,21.6
2022-08-17T18:48:09.396Z,21.6
2022-08-17T18:53:11.800Z,21.2
2022-08-17T18:58:10.210Z,21.3
2022-08-17T19:03:12.179Z,21.3
2022-08-17T19:08:11.109Z,21.1
2022-08-17T19:13:13.043Z,21.0
2022-08-17T19:18:15.282Z,20.9
2022-08-17T19:23:12.942Z,20.9
2022-08-17T19:28:21.646Z,20.9
2022-08-17T19:33:13.159Z,20.8
2022-08-17T19:38:13.640Z,20.8
2022-08-17T19:43:16.045Z,20.9
2022-08-17T19:48:14.316Z,20.8
2022-08-17T19:53:14.720Z,20.7
2022-08-17T19:58:17.957Z,20.8
2022-08-17T20:03:16.808Z,20.6
2022-08-17T20:08:15.975Z,20.6
2022-08-17T20:13:16.263Z,20.6
2022-08-17T20:18:16.663Z,20.4
2022-08-17T20:28:17.418Z,20.2
2022-08-17T20:33:17.794Z,20.1
2022-08-17T20:43:18.524Z,19.8
2022-08-17T20:48:36.875Z,19.8
2022-08-17T20:53:19.332Z,19.7
2022-08-17T20:58:19.698Z,19.6
2022-08-17T21:03:19.980Z,19.6
2022-08-17T21:08:20.328Z,19.8
2022-08-17T21:13:22.719Z,19.8
2022-08-17T21:18:21.075Z,19.7
2022-08-17T21:23:21.492Z,19.8
2022-08-17T21:28:21.759Z,19.8
2022-08-17T21:33:22.078Z,19.8
2022-08-17T21:38:22.479Z,19.8
2022-08-17T21:43:22.830Z,19.8
2022-08-17T21:48:23.253Z,19.6
2022-08-17T21:53:23.611Z,19.7
2022-08-17T21:58:24.057Z,19.5
2022-08-17T22:03:26.303Z,19.6
2022-08-17T22:08:24.676Z,19.2
2022-08-17T22:13:25.024Z,19.2
2022-08-17T22:18:25.400Z,19.3
2022-08-17T22:23:25.738Z,19.2
2022-08-17T22:28:26.118Z,19.2
2022-08-17T22:33:26.501Z,19.3
2022-08-17T22:38:26.768Z,19.2
2022-08-17T22:43:27.155Z,19.2
2022-08-17T22:48:27.591Z,19.2
2022-08-17T22:53:27.812Z,19.1
2022-08-17T22:58:28.175Z,19.1
2022-08-17T23:03:28.502Z,19.0
2022-08-17T23:08:28.788Z,18.9
2022-08-17T23:13:29.124Z,18.8
2022-08-17T23:18:29.520Z,18.8
2022-08-17T23:23:29.802Z,18.9
2022-08-17T23:28:30.172Z,18.8
2022-08-17T23:33:30.448Z,18.7
2022-08-17T23:38:30.803Z,18.5
2022-08-17T23:43:31.094Z,18.4
2022-08-17T23:48:35.897Z,18.2
2022-08-17T23:53:31.780Z,18.4
2022-08-17T23:58:32.062Z,18.2
